Time;durP1;ratioP1;P1;durP2;ratioP2;P2;SDS_P1;SDS_P2;PMS_P1;PMS_P2;Temp;Humidity;BMP_temperature;BMP_pressure;BME280_temperature;BME280_humidity;BME280_pressure;Samples;Min_cycle;Max_cycle;Signal;HPM_P1;HPM_P2
2022/11/27 00:03:04;;;;;;;55.07;25.23;;;5.60;99.90;;;3.22;100.00;101294.28;10608578;27;20568;-78
2022/11/27 00:08:07;;;;;;;37.77;19.57;;;5.60;99.90;;;3.20;100.00;101288.31;10595392;27;20083;-78
2022/11/27 00:13:10;;;;;;;46.00;21.40;;;5.60;99.90;;;3.16;100.00;101286.78;10630772;27;20066;-78
2022/11/27 00:18:13;;;;;;;54.07;24.83;;;5.60;99.90;;;3.17;100.00;101285.84;10603092;27;20146;-78
2022/11/27 00:23:16;;;;;;;43.03;20.97;;;5.60;99.90;;;3.17;100.00;101285.84;10607957;27;20063;-78
2022/11/27 00:28:19;;;;;;;51.10;25.23;;;5.60;99.90;;;3.16;100.00;101289.41;10553887;28;20059;-78
2022/11/27 00:33:22;;;;;;;46.23;22.00;;;5.50;99.90;;;3.14;100.00;101288.69;10578346;27;20557;-78
2022/11/27 00:38:25;;;;;;;67.27;27.03;;;5.50;99.90;;;3.14;100.00;101301.81;10569330;27;20562;-78
2022/11/27 00:43:28;;;;;;;58.63;24.87;;;5.50;99.90;;;3.13;100.00;101292.25;10602298;27;20087;-78
2022/11/27 00:48:31;;;;;;;44.77;21.43;;;5.50;99.90;;;3.12;100.00;101301.03;10628944;27;20472;-78
2022/11/27 00:53:35;;;;;;;42.20;22.30;;;5.50;99.90;;;3.12;100.00;101293.16;10598425;27;20067;-78
2022/11/27 00:58:37;;;;;;;48.50;23.93;;;5.50;99.90;;;3.10;100.00;101306.41;10585568;27;20067;-78
2022/11/27 01:03:40;;;;;;;55.83;24.90;;;5.50;99.90;;;3.12;100.00;101304.53;10576116;27;20055;-78
2022/11/27 01:08:44;;;;;;;52.30;23.97;;;5.50;99.90;;;3.11;100.00;101308.06;10598572;27;20059;-78
2022/11/27 01:13:47;;;;;;;62.80;26.93;;;5.50;99.90;;;3.13;100.00;101302.75;10586531;27;20055;-78
2022/11/27 01:18:55;;;;;;;62.47;24.50;;;5.50;99.90;;;3.13;100.00;101289.63;10611967;27;20461;-78
2022/11/27 01:23:59;;;;;;;40.30;19.37;;;5.50;99.90;;;3.10;100.00;101303.78;10585847;27;20400;-78
2022/11/27 01:29:02;;;;;;;50.37;23.53;;;5.50;99.90;;;3.10;100.00;101311.66;10596021;27;20146;-78
2022/11/27 01:34:11;;;;;;;55.93;24.00;;;5.50;99.90;;;3.08;100.00;101315.31;10590672;27;20062;-78
2022/11/27 01:39:20;;;;;;;45.00;20.90;;;5.50;99.90;;;3.06;100.00;101318.03;10571531;27;20064;-78
2022/11/27 01:44:23;;;;;;;46.43;20.53;;;5.40;99.90;;;3.06;100.00;101314.53;10560586;27;20083;-78
2022/11/27 01:49:39;;;;;;;48.87;22.77;;;5.40;99.90;;;3.04;100.00;101316.44;10571632;28;20143;-78
2022/11/27 01:55:17;;;;;;;55.77;24.43;;;5.40;99.90;;;3.03;100.00;101312.13;10575636;27;20484;-78
2022/11/27 02:00:21;;;;;;;49.33;21.87;;;5.40;99.90;;;3.01;100.00;101312.22;10603562;27;20055;-78
2022/11/27 02:05:27;;;;;;;53.77;23.77;;;5.40;99.90;;;2.97;100.00;101313.31;10599371;27;20063;-78
2022/11/27 02:11:12;;;;;;;57.90;24.87;;;5.40;99.90;;;2.98;100.00;101324.69;10592150;27;20101;-78
2022/11/27 02:16:52;;;;;;;57.50;25.90;;;5.30;99.90;;;2.99;100.00;101321.94;10609409;27;20081;-78
2022/11/27 02:22:13;;;;;;;51.60;21.50;;;5.30;99.90;;;3.00;100.00;101307.03;10574458;27;20496;-79
2022/11/27 02:27:40;;;;;;;60.33;24.07;;;5.40;99.90;;;3.02;100.00;101310.44;10605524;27;20059;-79
2022/11/27 02:32:58;;;;;;;53.23;22.30;;;5.40;99.90;;;3.03;100.00;101309.50;10648917;27;20059;-78
2022/11/27 02:38:16;;;;;;;66.60;25.20;;;5.40;99.90;;;3.01;100.00;101316.63;10595470;27;20526;-77
2022/11/27 02:43:36;;;;;;;42.57;17.60;;;5.40;99.90;;;2.95;100.00;101326.56;10643723;27;20056;-78
2022/11/27 02:48:53;;;;;;;48.80;22.80;;;5.40;99.90;;;2.93;100.00;101325.78;10591928;27;20095;-78
2022/11/27 02:54:02;;;;;;;61.97;24.20;;;5.30;99.90;;;2.94;100.00;101324.03;10517411;28;20056;-77
2022/11/27 02:59:11;;;;;;;60.30;23.60;;;5.30;99.90;;;2.94;100.00;101324.88;10531919;28;20455;-78
2022/11/27 03:04:22;;;;;;;56.40;24.30;;;5.30;99.90;;;2.94;100.00;101330.13;10529841;28;20151;-77
2022/11/27 03:09:38;;;;;;;40.90;18.83;;;5.30;99.90;;;2.95;100.00;101329.19;10505274;28;20060;-78
2022/11/27 03:14:42;;;;;;;43.77;19.80;;;5.30;99.90;;;2.99;100.00;101332.44;10519464;28;20062;-78
2022/11/27 03:19:51;;;;;;;52.87;20.93;;;5.40;99.90;;;3.03;100.00;101336.59;10513932;28;20064;-78
2022/11/27 03:24:54;;;;;;;59.43;25.70;;;5.40;99.90;;;3.08;100.00;101338.97;10541120;28;20067;-78
2022/11/27 03:30:02;;;;;;;47.73;19.80;;;5.40;99.90;;;3.14;100.00;101339.44;10547436;28;20088;-78
2022/11/27 03:35:10;;;;;;;62.40;26.07;;;5.50;99.90;;;3.20;100.00;101339.06;10544007;28;20151;-78
2022/11/27 03:40:14;;;;;;;54.50;22.33;;;5.60;99.90;;;3.28;100.00;101337.75;10511312;28;20065;-78
2022/11/27 03:45:57;;;;;;;40.23;20.30;;;5.60;99.90;;;3.35;100.00;101345.16;10529513;28;20060;-78
2022/11/27 03:51:14;;;;;;;43.90;18.33;;;5.70;99.90;;;3.41;100.00;101347.41;10577079;27;20062;-79
2022/11/27 03:56:35;;;;;;;48.17;21.53;;;5.70;99.90;;;3.44;100.00;101341.97;10580875;27;20059;-79
2022/11/27 04:01:39;;;;;;;52.03;24.23;;;5.80;99.90;;;3.46;100.00;101336.63;10647794;27;20063;-78
2022/11/27 04:06:42;;;;;;;47.53;21.30;;;5.80;99.90;;;3.47;100.00;101339.13;10593725;27;20066;-78
2022/11/27 04:11:45;;;;;;;44.30;21.10;;;5.80;99.90;;;3.49;100.00;101337.28;10593497;27;20104;-78
2022/11/27 04:16:48;;;;;;;47.90;21.47;;;5.80;99.90;;;3.55;100.00;101343.09;10583581;27;20397;-78
2022/11/27 04:21:51;;;;;;;52.33;25.17;;;5.90;99.90;;;3.57;100.00;101349.09;10599436;27;20059;-78
2022/11/27 04:26:54;;;;;;;58.27;26.13;;;5.90;99.90;;;3.58;100.00;101340.28;10573572;27;20056;-78
2022/11/27 04:31:57;;;;;;;44.87;20.60;;;5.90;99.90;;;3.62;100.00;101340.00;10605477;27;20113;-78
2022/11/27 04:37:00;;;;;;;49.67;22.10;;;6.00;99.90;;;3.63;100.00;101339.03;10588453;27;20062;-78
2022/11/27 04:42:03;;;;;;;45.57;20.80;;;6.00;99.90;;;3.65;100.00;101338.94;10592850;27;20411;-78
2022/11/27 04:47:06;;;;;;;59.73;24.80;;;6.00;99.90;;;3.65;100.00;101333.69;10593679;27;20558;-78
2022/11/27 04:52:09;;;;;;;58.20;24.87;;;6.00;99.90;;;3.64;100.00;101326.75;10609329;27;20545;-78
2022/11/27 04:57:12;;;;;;;63.83;28.57;;;6.00;99.90;;;3.67;100.00;101331.81;10611226;27;20105;-78
2022/11/27 05:02:16;;;;;;;45.93;21.90;;;6.00;99.90;;;3.71;100.00;101320.16;10617204;27;20149;-78
2022/11/27 05:07:18;;;;;;;41.60;19.87;;;6.10;99.90;;;3.76;100.00;101320.72;10586562;27;20067;-78
2022/11/27 05:12:22;;;;;;;48.10;21.37;;;6.10;99.90;;;3.79;100.00;101325.81;10585300;28;20086;-78
2022/11/27 05:17:25;;;;;;;45.23;19.13;;;6.10;99.90;;;3.82;100.00;101327.38;10601828;27;20090;-78
2022/11/27 05:22:27;;;;;;;40.03;18.47;;;6.20;99.90;;;3.84;100.00;101329.00;10616026;27;20109;-78
2022/11/27 05:27:30;;;;;;;57.90;23.23;;;6.20;99.90;;;3.88;100.00;101327.84;10591916;27;20055;-78
2022/11/27 05:32:34;;;;;;;37.40;16.70;;;6.20;99.90;;;3.88;100.00;101325.19;10608642;27;20079;-78
2022/11/27 05:37:36;;;;;;;35.40;16.07;;;6.20;99.90;;;3.91;100.00;101325.03;10618768;27;20605;-78
2022/11/27 05:42:39;;;;;;;43.57;18.17;;;6.30;99.90;;;3.92;100.00;101331.97;10583064;27;20083;-80
2022/11/27 05:47:42;;;;;;;37.47;16.93;;;6.30;99.90;;;3.93;100.00;101327.53;10542176;27;20066;-78
2022/11/27 05:52:45;;;;;;;46.43;18.20;;;6.30;99.90;;;3.93;100.00;101328.38;10583074;27;20052;-78
2022/11/27 05:57:48;;;;;;;45.67;18.83;;;6.30;99.90;;;3.93;100.00;101323.13;10597995;27;20059;-79
2022/11/27 06:02:51;;;;;;;47.97;20.53;;;6.30;99.90;;;3.92;100.00;101324.06;10640461;27;20055;-78
2022/11/27 06:07:54;;;;;;;45.30;20.43;;;6.30;99.90;;;3.90;100.00;101338.25;10573755;27;20230;-80
2022/11/27 06:12:58;;;;;;;53.67;22.30;;;6.20;99.90;;;3.89;100.00;101334.78;10617814;27;20051;-80
2022/11/27 06:18:01;;;;;;;57.47;22.33;;;6.20;99.90;;;3.89;100.00;101331.31;10586417;27;20063;-80
2022/11/27 06:23:04;;;;;;;64.53;25.50;;;6.20;99.90;;;3.88;100.00;101338.34;10600906;27;20116;-80
2022/11/27 06:28:06;;;;;;;57.17;22.80;;;6.20;99.90;;;3.89;100.00;101339.19;10616226;27;20597;-78
2022/11/27 06:33:09;;;;;;;63.17;23.03;;;6.20;99.90;;;3.89;100.00;101345.28;10575835;27;20411;-80
2022/11/27 06:38:12;;;;;;;62.27;25.27;;;6.20;99.90;;;3.91;100.00;101343.44;10574939;28;20093;-78
2022/11/27 06:43:15;;;;;;;58.77;22.90;;;6.20;99.90;;;3.95;100.00;101352.78;10566564;28;20060;-79
2022/11/27 06:48:18;;;;;;;65.03;24.50;;;6.30;99.90;;;3.96;100.00;101356.28;10635860;27;20418;-79
2022/11/27 06:53:21;;;;;;;47.43;19.80;;;6.30;99.90;;;3.98;100.00;101357.88;10580929;27;20059;-78
2022/11/27 06:58:24;;;;;;;49.20;18.43;;;6.30;99.90;;;4.00;100.00;101363.88;10604401;27;20510;-80
2022/11/27 07:03:33;;;;;;;46.97;19.53;;;6.30;99.90;;;4.03;100.00;101363.69;10605702;27;20109;-80
2022/11/27 07:08:36;;;;;;;47.47;19.53;;;6.30;99.90;;;4.06;100.00;101344.22;10600703;27;20056;-82
2022/11/27 07:13:40;;;;;;;51.37;19.77;;;6.40;99.90;;;4.09;100.00;101351.09;10585498;27;20109;-82
2022/11/27 07:18:46;;;;;;;40.37;16.47;;;6.40;99.90;;;4.12;100.00;101354.34;10626745;27;20124;-82
2022/11/27 07:23:50;;;;;;;46.30;17.20;;;6.40;99.90;;;4.13;100.00;101349.94;10608551;27;20112;-82
2022/11/27 07:28:54;;;;;;;45.97;16.63;;;6.40;99.90;;;4.16;100.00;101355.00;10603362;27;20059;-81
2022/11/27 07:33:57;;;;;;;50.80;18.07;;;6.50;99.90;;;4.23;100.00;101366.81;10598204;27;20148;-81
2022/11/27 07:39:00;;;;;;;52.20;20.50;;;6.50;99.90;;;4.25;100.00;101371.03;10609008;27;20056;-81
2022/11/27 07:44:03;;;;;;;50.70;18.33;;;6.60;99.90;;;4.25;100.00;101365.78;10597457;27;20058;-81
2022/11/27 07:49:06;;;;;;;47.23;19.23;;;6.60;99.90;;;4.25;100.00;101368.41;10632372;27;20423;-82
2022/11/27 07:54:09;;;;;;;52.13;22.80;;;6.60;99.90;;;4.27;100.00;101374.44;10608654;27;20410;-81
2022/11/27 07:59:12;;;;;;;49.67;19.77;;;6.60;99.90;;;4.30;100.00;101365.50;10591125;27;20055;-81
2022/11/27 08:04:15;;;;;;;45.80;17.23;;;6.60;99.90;;;4.34;100.00;101366.16;10593151;27;20055;-81
2022/11/27 08:09:18;;;;;;;49.67;17.80;;;6.60;99.90;;;4.43;100.00;101362.91;10609820;27;20596;-81
2022/11/27 08:14:21;;;;;;;40.57;15.07;;;6.70;99.90;;;4.46;100.00;101355.66;10595895;27;20521;-81
2022/11/27 08:19:24;;;;;;;40.43;15.87;;;6.70;99.90;;;4.54;100.00;101356.00;10618270;27;20066;-81
2022/11/27 08:24:28;;;;;;;40.23;16.10;;;6.80;99.90;;;4.56;100.00;101355.91;10610745;27;20056;-81
2022/11/27 08:29:30;;;;;;;32.53;14.00;;;6.80;99.90;;;4.62;100.00;101371.31;10596995;27;20392;-81
2022/11/27 08:34:36;;;;;;;37.83;13.87;;;6.80;99.90;;;4.69;100.00;101380.47;10609229;27;20407;-81
2022/11/27 08:39:39;;;;;;;36.07;12.80;;;6.90;99.90;;;4.73;100.00;101381.94;10588681;27;20139;-81
2022/11/27 08:44:43;;;;;;;30.67;13.40;;;6.90;99.90;;;4.79;100.00;101385.97;10591564;27;20413;-81
2022/11/27 08:49:46;;;;;;;29.37;12.80;;;7.00;99.90;;;4.84;100.00;101378.59;10584876;27;20446;-82
2022/11/27 08:54:50;;;;;;;31.50;13.90;;;7.00;99.90;;;4.93;100.00;101388.53;10610531;27;20064;-81
2022/11/27 08:59:59;;;;;;;30.27;12.10;;;7.10;99.90;;;5.01;100.00;101396.78;10583160;27;20067;-81
2022/11/27 09:05:05;;;;;;;26.33;12.77;;;7.20;99.90;;;5.09;100.00;101394.44;10609702;27;20062;-81
2022/11/27 09:10:09;;;;;;;29.40;12.97;;;7.30;99.90;;;5.14;100.00;101396.78;10590580;27;20078;-81
2022/11/27 09:15:12;;;;;;;20.10;10.57;;;7.40;99.90;;;5.18;100.00;101402.69;10574568;27;20449;-81
2022/11/27 09:20:15;;;;;;;29.03;12.40;;;7.40;99.90;;;5.23;100.00;101397.97;10625938;27;20055;-81
2022/11/27 09:25:18;;;;;;;44.77;19.13;;;7.50;99.90;;;5.30;100.00;101400.06;10631466;27;20058;-81
2022/11/27 09:30:21;;;;;;;35.00;15.10;;;7.60;99.90;;;5.36;100.00;101394.38;10602760;27;20453;-81
2022/11/27 09:35:25;;;;;;;32.57;13.83;;;7.70;99.90;;;5.43;100.00;101391.31;10579464;27;20060;-81
2022/11/27 09:40:28;;;;;;;26.63;12.63;;;7.70;99.90;;;5.41;100.00;101377.41;10623566;27;20060;-82
2022/11/27 09:45:32;;;;;;;27.40;12.67;;;7.80;99.90;;;5.38;100.00;101383.72;10545707;27;20063;-82
2022/11/27 09:50:41;;;;;;;45.37;20.77;;;7.70;99.90;;;5.27;100.00;101376.53;10550916;28;20173;-82
2022/11/27 09:55:48;;;;;;;38.10;18.73;;;7.60;99.90;;;5.19;100.00;101383.31;10585689;27;20055;-81
2022/11/27 10:00:51;;;;;;;40.77;16.53;;;7.60;99.90;;;5.15;100.00;101384.44;10606556;27;20079;-81
2022/11/27 10:06:28;;;;;;;36.27;13.77;;;7.50;99.90;;;5.09;100.00;101381.28;10607918;27;20055;-81
2022/11/27 10:11:57;;;;;;;37.50;15.00;;;7.50;99.90;;;5.07;100.00;101379.72;10593697;27;20059;-82
2022/11/27 10:18:11;;;;;;;35.27;15.00;;;7.40;99.90;;;5.05;100.00;101374.56;10622119;27;20499;-82
2022/11/27 10:23:55;;;;;;;39.47;14.97;;;7.40;99.90;;;5.01;100.00;101364.31;10528718;27;20121;-82
2022/11/27 10:29:29;;;;;;;34.93;14.67;;;7.30;99.90;;;4.99;100.00;101367.06;10587193;27;20056;-85
2022/11/27 10:34:55;;;;;;;37.97;15.20;;;7.30;99.90;;;4.98;100.00;101360.09;10631619;27;20067;-86
2022/11/27 10:40:14;;;;;;;44.07;15.93;;;7.30;99.90;;;4.96;100.00;101356.72;10593762;27;20052;-89
2022/11/27 10:45:47;;;;;;;44.27;17.70;;;7.30;99.90;;;4.97;100.00;101355.75;10615507;27;20510;-88
2022/11/27 10:50:50;;;;;;;45.07;16.23;;;7.30;99.90;;;5.01;100.00;101349.34;10598087;27;20094;-93
2022/11/27 10:56:13;;;;;;;51.53;21.67;;;7.30;99.90;;;5.01;100.00;101344.06;10557349;27;20106;-88
2022/11/27 11:01:19;;;;;;;61.37;24.00;;;7.30;99.90;;;5.06;100.00;101336.72;10602432;27;20138;-88
2022/11/27 11:06:25;;;;;;;44.93;15.33;;;7.40;99.90;;;5.08;100.00;101329.53;10576914;27;20465;-89
2022/11/27 11:11:29;;;;;;;44.77;17.67;;;7.40;99.90;;;5.10;100.00;101330.28;10578742;27;20056;-83
2022/11/27 11:16:43;;;;;;;57.07;20.07;;;7.40;99.90;;;5.08;100.00;101321.63;10602129;27;20086;-83
2022/11/27 11:21:46;;;;;;;64.87;23.20;;;7.40;99.90;;;5.07;100.00;101313.84;10604393;27;20418;-83
2022/11/27 11:27:28;;;;;;;45.63;15.63;;;7.40;99.90;;;5.08;100.00;101313.72;10599678;27;20063;-82
2022/11/27 11:32:39;;;;;;;48.45;17.88;;;7.40;99.90;;;5.09;100.00;101315.41;10604797;27;20062;-83
2022/11/27 11:37:45;;;;;;;352.85;105.28;;;7.40;99.90;;;5.12;100.00;101292.44;10635064;27;20052;-82
2022/11/27 11:43:26;;;;;;;69.83;28.53;;;7.40;99.90;;;5.15;100.00;101286.94;10603938;27;20529;-82
2022/11/27 11:48:29;;;;;;;50.33;19.37;;;7.50;99.90;;;5.19;100.00;101284.00;10613212;27;20507;-82
2022/11/27 11:53:39;;;;;;;49.27;17.67;;;7.50;99.90;;;5.19;100.00;101277.91;10640433;27;20070;-82
2022/11/27 11:58:53;;;;;;;66.15;27.45;;;7.50;99.90;;;5.19;100.00;101268.19;10578454;27;20056;-82
2022/11/27 12:04:47;;;;;;;51.77;17.67;;;7.50;99.90;;;5.29;100.00;101263.13;10611336;27;20055;-82
2022/11/27 12:10:14;;;;;;;50.70;20.67;;;7.60;99.90;;;5.40;100.00;101254.44;10592442;27;20122;-82
2022/11/27 12:15:45;;;;;;;42.00;17.60;;;7.70;99.90;;;5.52;100.00;101262.34;10596873;27;20573;-85
2022/11/27 12:20:56;;;;;;;32.57;13.93;;;7.80;99.90;;;5.59;100.00;101254.84;10601411;27;20488;-82
2022/11/27 12:26:08;;;;;;;30.92;13.88;;;7.90;99.90;;;5.62;100.00;101254.59;10580084;27;20056;-82
2022/11/27 12:31:38;;;;;;;32.27;13.93;;;7.90;99.90;;;5.65;100.00;101254.41;10588310;27;20059;-82
2022/11/27 12:37:25;;;;;;;27.60;12.07;;;8.00;99.90;;;5.66;100.00;101255.25;10612108;27;20051;-82
2022/11/27 12:42:50;;;;;;;34.03;15.43;;;8.00;99.90;;;5.62;100.00;101242.25;10609701;27;20101;-82
2022/11/27 12:48:11;;;;;;;29.73;13.43;;;8.00;99.90;;;5.59;100.00;101245.13;10593410;27;20117;-82
2022/11/27 12:53:35;;;;;;;36.23;14.83;;;7.90;99.90;;;5.55;100.00;101242.81;10579582;27;20523;-82
2022/11/27 12:58:47;;;;;;;28.00;13.70;;;7.90;99.90;;;5.48;100.00;101241.59;10608738;27;20058;-82
2022/11/27 13:04:12;;;;;;;37.50;18.10;;;7.80;99.90;;;5.48;100.00;101246.84;10595674;27;20134;-82
2022/11/27 13:09:50;;;;;;;49.40;22.53;;;7.80;99.90;;;5.40;100.00;101230.72;10578027;27;20102;-82
2022/11/27 13:15:05;;;;;;;53.63;24.50;;;7.70;99.90;;;5.38;100.00;101228.22;10550239;27;20062;-82
2022/11/27 13:20:19;;;;;;;50.60;22.83;;;7.70;99.90;;;5.35;100.00;101231.06;10612366;27;20062;-81
2022/11/27 13:25:23;;;;;;;29.43;13.47;;;7.70;99.90;;;5.34;100.00;101229.41;10599279;27;20063;-81
2022/11/27 13:30:33;;;;;;;34.80;15.80;;;7.70;99.90;;;5.29;100.00;101216.53;10571674;27;20100;-81
2022/11/27 13:35:42;;;;;;;35.40;14.67;;;7.70;99.90;;;5.28;100.00;101219.28;10585795;27;20059;-81
2022/11/27 13:40:53;;;;;;;34.20;15.53;;;7.60;99.90;;;5.20;100.00;101214.53;10610264;27;20102;-81
2022/11/27 13:46:08;;;;;;;28.38;13.20;;;7.60;99.90;;;5.24;100.00;101237.09;10592767;27;20109;-82
2022/11/27 13:51:30;;;;;;;29.63;15.47;;;7.60;99.90;;;5.23;100.00;101227.50;10602637;27;20071;-82
2022/11/27 13:56:33;;;;;;;29.33;13.77;;;7.60;99.90;;;5.22;100.00;101233.75;10590031;27;20059;-82
2022/11/27 14:01:37;;;;;;;32.40;13.97;;;7.60;99.90;;;5.19;100.00;101235.75;10586537;27;20473;-82
2022/11/27 14:06:42;;;;;;;37.70;15.93;;;7.50;99.90;;;5.16;100.00;101223.63;10595162;27;20055;-82
2022/11/27 14:11:47;;;;;;;42.10;20.53;;;7.50;99.90;;;5.15;100.00;101221.09;10584986;27;20060;-82
2022/11/27 14:17:03;;;;;;;35.10;16.67;;;7.50;99.90;;;5.15;100.00;101234.25;10606084;27;20150;-81
2022/11/27 14:22:50;;;;;;;24.07;12.43;;;7.50;99.90;;;5.14;100.00;101236.06;10581716;27;20055;-82
2022/11/27 14:28:25;;;;;;;25.50;12.07;;;7.50;99.90;;;5.14;100.00;101237.84;10636037;27;20051;-81
2022/11/27 14:33:33;;;;;;;20.67;10.90;;;7.50;99.90;;;5.12;100.00;101240.59;10602818;27;20521;-81
2022/11/27 14:38:57;;;;;;;28.07;13.13;;;7.50;99.90;;;5.12;100.00;101237.13;10621562;27;20059;-81
2022/11/27 14:44:02;;;;;;;25.13;13.27;;;7.50;99.90;;;5.10;100.00;101243.34;10577541;27;20055;-82
2022/11/27 14:49:17;;;;;;;25.23;12.23;;;7.50;99.90;;;5.09;100.00;101239.00;10605799;27;20075;-81
2022/11/27 14:54:29;;;;;;;33.90;17.13;;;7.50;99.90;;;5.05;100.00;101241.97;10578055;28;20110;-81
2022/11/27 14:59:32;;;;;;;33.17;15.77;;;7.50;99.90;;;5.02;100.00;101244.81;10568551;27;20059;-81
2022/11/27 15:04:43;;;;;;;28.47;14.73;;;7.40;99.90;;;5.01;100.00;101249.25;10592034;27;20056;-79
2022/11/27 15:09:54;;;;;;;36.27;16.77;;;7.40;99.90;;;4.98;100.00;101249.47;10594075;27;20066;-79
2022/11/27 15:15:14;;;;;;;27.90;12.43;;;7.40;99.90;;;4.97;100.00;101254.81;10569951;27;20066;-79
2022/11/27 15:20:33;;;;;;;34.10;16.30;;;7.40;99.90;;;4.94;100.00;101245.34;10597161;27;20438;-78
2022/11/27 15:25:44;;;;;;;31.30;13.80;;;7.30;99.90;;;4.91;100.00;101247.34;10589242;27;20091;-79
2022/11/27 15:30:47;;;;;;;33.58;16.42;;;7.30;99.90;;;4.89;100.00;101249.25;10590512;27;20083;-79
2022/11/27 15:35:51;;;;;;;44.97;21.13;;;7.30;99.90;;;4.86;100.00;101245.06;10615029;27;20104;-79
2022/11/27 15:40:59;;;;;;;31.13;15.63;;;7.20;99.90;;;4.86;100.00;101250.31;10615701;27;20570;-78
2022/11/27 15:46:07;;;;;;;26.30;13.60;;;7.20;99.90;;;4.81;100.00;101253.25;10613029;27;20059;-79
2022/11/27 15:51:10;;;;;;;175.80;100.27;;;7.20;99.90;;;4.80;100.00;101256.00;10589740;27;20060;-79
2022/11/27 15:56:14;;;;;;;51.20;25.17;;;7.20;99.90;;;4.78;100.00;101260.50;10648221;27;20059;-79
2022/11/27 16:01:17;;;;;;;28.97;15.40;;;7.10;99.90;;;4.75;100.00;101251.03;10610820;27;20598;-78
2022/11/27 16:06:23;;;;;;;21.70;12.43;;;7.10;99.90;;;4.75;100.00;101248.41;10613286;27;20060;-79
2022/11/27 16:11:30;;;;;;;26.53;12.13;;;7.10;99.90;;;4.73;100.00;101244.19;10597788;27;20530;-79
2022/11/27 16:16:34;;;;;;;31.67;16.97;;;7.10;99.90;;;4.73;100.00;101236.28;10596247;27;20064;-79
2022/11/27 16:21:37;;;;;;;29.53;14.97;;;7.10;99.90;;;4.70;100.00;101237.34;10594469;27;20056;-79
2022/11/27 16:26:41;;;;;;;42.23;18.13;;;7.00;99.90;;;4.69;100.00;101234.81;10613547;27;20052;-79
2022/11/27 16:31:44;;;;;;;37.57;16.53;;;7.10;99.90;;;4.66;100.00;101233.22;10612017;27;20055;-79
2022/11/27 16:36:47;;;;;;;28.83;15.00;;;7.00;99.90;;;4.65;100.00;101231.53;10614235;27;20150;-79
2022/11/27 16:41:50;;;;;;;33.90;16.30;;;7.00;99.90;;;4.64;100.00;101223.75;10627093;27;20055;-79
2022/11/27 16:46:53;;;;;;;23.70;12.43;;;7.00;99.90;;;4.64;100.00;101219.34;10608599;27;20060;-81
2022/11/27 16:51:56;;;;;;;29.37;13.37;;;7.00;99.90;;;4.65;100.00;101217.53;10552246;28;20431;-79
2022/11/27 16:56:59;;;;;;;25.97;11.27;;;7.00;99.90;;;4.64;100.00;101205.34;10554866;27;20458;-79
2022/11/27 17:02:03;;;;;;;26.73;12.00;;;7.00;99.90;;;4.67;100.00;101218.28;10586153;27;20059;-79
2022/11/27 17:07:07;;;;;;;34.30;16.03;;;7.00;99.90;;;4.62;100.00;101217.72;10589603;27;20067;-79
2022/11/27 17:12:10;;;;;;;32.27;16.17;;;7.00;99.90;;;4.62;100.00;101215.09;10608378;27;20078;-79
2022/11/27 17:17:12;;;;;;;24.90;12.10;;;7.00;99.90;;;4.64;100.00;101205.34;10627898;27;20077;-79
2022/11/27 17:22:15;;;;;;;34.17;15.97;;;7.00;99.90;;;4.65;100.00;101215.75;10594147;27;20462;-79
2022/11/27 17:27:18;;;;;;;20.00;10.87;;;7.00;99.90;;;4.66;100.00;101203.44;10594406;27;20082;-79
2022/11/27 17:32:23;;;;;;;24.03;12.23;;;7.00;99.90;;;4.69;100.00;101201.44;10593070;27;20454;-79
2022/11/27 17:37:26;;;;;;;23.37;12.10;;;7.00;99.90;;;4.70;100.00;101197.00;10593326;27;20059;-79
2022/11/27 17:42:29;;;;;;;22.83;12.10;;;7.00;99.90;;;4.70;100.00;101179.41;10609981;27;20056;-79
2022/11/27 17:47:33;;;;;;;24.37;11.83;;;7.10;99.90;;;4.68;100.00;101180.44;10595202;27;20060;-79
2022/11/27 17:52:36;;;;;;;26.80;13.27;;;7.00;99.90;;;4.66;100.00;101182.38;10609284;27;20068;-79
2022/11/27 17:57:39;;;;;;;35.73;16.27;;;7.00;99.90;;;4.60;100.00;101169.63;10566964;28;20056;-78
2022/11/27 18:02:41;;;;;;;34.57;16.10;;;7.00;99.90;;;4.55;100.00;101157.59;10583814;28;20060;-79
2022/11/27 18:07:44;;;;;;;26.60;11.73;;;6.90;99.90;;;4.53;100.00;101154.25;10562347;27;20167;-78
2022/11/27 18:12:48;;;;;;;35.60;17.63;;;6.90;99.90;;;4.54;100.00;101158.56;10551197;28;20059;-79
2022/11/27 18:17:51;;;;;;;32.40;16.17;;;6.90;99.90;;;4.54;100.00;101166.47;10586313;27;20056;-79
2022/11/27 18:22:54;;;;;;;36.57;17.10;;;6.90;99.90;;;4.51;100.00;101161.41;10598530;27;20063;-79
2022/11/27 18:27:57;;;;;;;29.30;13.90;;;6.90;99.90;;;4.50;100.00;101164.16;10580474;27;20056;-79
2022/11/27 18:33:02;;;;;;;29.20;13.50;;;6.80;99.90;;;4.46;100.00;101160.88;10551053;27;20110;-79
2022/11/27 18:38:05;;;;;;;30.50;13.50;;;6.80;99.90;;;4.40;100.00;101149.94;10562593;28;20060;-79
2022/11/27 18:43:09;;;;;;;28.63;14.37;;;6.80;99.90;;;4.35;100.00;101149.41;10580275;27;20091;-79
2022/11/27 18:48:12;;;;;;;29.67;13.53;;;6.70;99.90;;;4.31;100.00;101148.75;10571438;27;20064;-79
2022/11/27 18:53:15;;;;;;;28.43;12.10;;;6.60;99.90;;;4.28;100.00;101138.47;10545306;27;20060;-79
2022/11/27 18:58:18;;;;;;;38.60;15.80;;;6.60;99.90;;;4.27;100.00;101131.53;10569619;27;20076;-79
2022/11/27 19:03:21;;;;;;;28.70;12.13;;;6.60;99.90;;;4.24;100.00;101136.97;10553108;27;20064;-79
2022/11/27 19:08:24;;;;;;;27.90;11.03;;;6.60;99.90;;;4.23;100.00;101140.56;10568091;27;20063;-79
2022/11/27 19:13:28;;;;;;;28.37;11.20;;;6.50;99.90;;;4.24;100.00;101152.75;10587563;27;20114;-79
2022/11/27 19:18:31;;;;;;;30.33;11.97;;;6.60;99.90;;;4.18;100.00;101151.38;10572409;28;20060;-79
2022/11/27 19:23:33;;;;;;;27.63;10.80;;;6.60;99.90;;;4.17;100.00;101147.06;10584376;27;20056;-79
2022/11/27 19:28:42;;;;;;;26.97;11.13;;;6.50;99.90;;;4.11;100.00;101158.00;10598948;27;20063;-82
2022/11/27 19:33:54;;;;;;;30.70;12.20;;;6.40;99.90;;;4.09;100.00;101149.38;10581594;27;20109;-83
2022/11/27 19:39:01;;;;;;;35.00;12.10;;;6.40;99.90;;;4.07;100.00;101160.94;10605850;27;20412;-82
2022/11/27 19:44:05;;;;;;;27.27;10.83;;;6.40;99.90;;;4.06;100.00;101160.09;10552075;28;20065;-83
2022/11/27 19:49:16;;;;;;;32.20;12.87;;;6.40;99.90;;;4.06;100.00;101152.22;10580330;27;20444;-82
2022/11/27 19:54:20;;;;;;;29.02;12.52;;;6.40;99.90;;;4.07;100.00;101156.53;10570909;27;20499;-81
2022/11/27 19:59:24;;;;;;;27.17;11.87;;;6.40;99.90;;;4.07;100.00;101156.53;10530083;28;20532;-85
2022/11/27 20:04:27;;;;;;;34.80;14.93;;;6.40;99.90;;;4.09;100.00;101138.03;10572071;27;20101;-82
2022/11/27 20:09:30;;;;;;;68.40;27.70;;;6.40;99.90;;;4.10;100.00;101130.03;10561343;27;20052;-79
2022/11/27 20:14:33;;;;;;;34.03;15.23;;;6.50;99.90;;;4.11;100.00;101129.06;10555458;27;20110;-78
2022/11/27 20:19:35;;;;;;;40.03;18.73;;;6.50;99.90;;;4.12;100.00;101132.53;10591063;27;20074;-79
2022/11/27 20:24:39;;;;;;;43.20;19.07;;;6.50;99.90;;;4.11;100.00;101136.13;10587775;27;20060;-80
2022/11/27 20:30:07;;;;;;;36.30;15.07;;;6.50;99.90;;;4.12;100.00;101132.53;10577073;28;20079;-79
2022/11/27 20:35:10;;;;;;;37.70;15.37;;;6.50;99.90;;;4.09;100.00;101127.50;10565776;28;20059;-79
2022/11/27 20:40:13;;;;;;;37.33;14.50;;;6.40;99.90;;;4.06;100.00;101117.19;10569267;28;20060;-79
2022/11/27 20:45:17;;;;;;;37.97;15.23;;;6.40;99.90;;;4.01;100.00;101120.94;10566047;27;20052;-79
2022/11/27 20:50:23;;;;;;;44.53;17.83;;;6.40;99.90;;;3.98;100.00;101115.91;10571365;27;20423;-80
2022/11/27 20:55:26;;;;;;;50.47;16.87;;;6.40;99.90;;;3.96;100.00;101116.97;10594705;27;20056;-79
2022/11/27 21:00:29;;;;;;;41.53;15.23;;;6.30;99.90;;;3.97;100.00;101118.66;10609242;27;20056;-79